createdAt,value
2022-12-24T00:01:06.989Z,8.63
2022-12-24T00:03:36.209Z,8.66
2022-12-24T00:06:08.149Z,8.59
2022-12-24T00:08:35.898Z,8.54
2022-12-24T00:11:03.135Z,8.56
2022-12-24T00:13:30.333Z,8.63
2022-12-24T00:15:57.457Z,8.54
2022-12-24T00:18:24.901Z,8.55
2022-12-24T00:20:52.245Z,8.44
2022-12-24T00:23:20.550Z,8.37
2022-12-24T00:25:48.445Z,8.38
2022-12-24T00:28:16.847Z,8.39
2022-12-24T00:30:44.561Z,8.30
2022-12-24T00:33:12.085Z,8.23
2022-12-24T00:35:40.813Z,8.21
2022-12-24T00:38:08.627Z,8.14
2022-12-24T00:40:36.091Z,8.09
2022-12-24T00:43:03.689Z,8.03
2022-12-24T00:45:31.038Z,8.05
2022-12-24T00:47:58.783Z,8.04
2022-12-24T00:50:25.951Z,8.04
2022-12-24T00:52:53.115Z,8.07
2022-12-24T00:55:20.443Z,8.01
2022-12-24T00:57:47.757Z,8.01
2022-12-24T01:00:17.965Z,7.99
2022-12-24T01:02:45.604Z,8.04
2022-12-24T01:05:13.052Z,8.04
2022-12-24T01:07:44.109Z,8.07
2022-12-24T01:10:14.380Z,8.12
2022-12-24T01:12:42.144Z,8.13
2022-12-24T01:15:10.857Z,8.18
2022-12-24T01:17:38.323Z,8.18
2022-12-24T01:20:07.778Z,8.22
2022-12-24T01:22:35.440Z,8.21
2022-12-24T01:25:02.709Z,8.30
2022-12-24T01:27:30.239Z,8.27
2022-12-24T01:29:57.515Z,8.23
2022-12-24T01:32:24.784Z,8.19
2022-12-24T01:34:51.959Z,8.13
2022-12-24T01:37:19.462Z,8.21
2022-12-24T01:39:46.643Z,8.20
2022-12-24T01:42:42.684Z,8.18
2022-12-24T01:45:41.983Z,8.16
2022-12-24T01:48:17.696Z,8.17
2022-12-24T01:50:46.014Z,8.20
2022-12-24T01:53:14.692Z,8.20
2022-12-24T01:55:43.664Z,8.21
2022-12-24T01:58:13.718Z,8.13
2022-12-24T02:00:40.978Z,8.17
2022-12-24T02:03:09.154Z,8.17
2022-12-24T02:05:47.735Z,8.15
2022-12-24T02:08:15.531Z,8.13
2022-12-24T02:10:43.029Z,8.08
2022-12-24T02:13:10.939Z,8.11
2022-12-24T02:16:00.965Z,8.06
2022-12-24T02:18:41.418Z,8.04
2022-12-24T02:21:35.205Z,8.08
2022-12-24T02:24:49.728Z,8.10
2022-12-24T02:27:35.254Z,8.14
2022-12-24T02:30:05.470Z,8.17
2022-12-24T02:32:51.791Z,8.19
2022-12-24T02:35:30.755Z,8.24
2022-12-24T02:38:08.322Z,8.31
2022-12-24T02:40:45.191Z,8.30
2022-12-24T02:43:20.612Z,8.30
2022-12-24T02:45:58.957Z,8.23
2022-12-24T02:48:30.137Z,8.13
2022-12-24T02:51:06.959Z,8.02
2022-12-24T02:53:35.131Z,7.98
2022-12-24T02:56:17.495Z,7.95
2022-12-24T02:58:50.516Z,7.99
2022-12-24T03:01:34.182Z,7.97
2022-12-24T03:04:39.597Z,8.01
2022-12-24T03:07:15.427Z,8.02
2022-12-24T03:09:57.819Z,8.02
2022-12-24T03:12:33.547Z,7.95
2022-12-24T03:15:02.211Z,7.88
2022-12-24T03:17:30.638Z,7.74
2022-12-24T03:19:57.929Z,7.68
2022-12-24T03:22:26.545Z,7.65
2022-12-24T03:24:53.794Z,7.62
2022-12-24T03:27:21.567Z,7.67
2022-12-24T03:29:48.810Z,7.70
2022-12-24T03:32:24.263Z,7.76
2022-12-24T03:34:51.946Z,7.77
2022-12-24T03:37:19.500Z,7.79
2022-12-24T03:39:46.674Z,7.79
2022-12-24T03:42:13.859Z,7.83
2022-12-24T03:44:41.032Z,7.82
2022-12-24T03:47:08.277Z,7.86
2022-12-24T03:49:35.492Z,7.86
2022-12-24T03:52:02.904Z,7.86
2022-12-24T03:54:30.176Z,7.79
2022-12-24T03:56:57.545Z,7.82
2022-12-24T03:59:24.932Z,7.91
2022-12-24T04:01:52.239Z,7.96
2022-12-24T04:04:19.555Z,8.00
2022-12-24T04:06:46.660Z,8.00
2022-12-24T04:09:13.936Z,7.96
2022-12-24T04:11:41.119Z,7.97
2022-12-24T04:14:20.297Z,8.00
2022-12-24T04:16:49.601Z,8.03
2022-12-24T04:19:16.988Z,8.04
2022-12-24T04:21:44.153Z,8.15
2022-12-24T04:24:11.394Z,8.22
2022-12-24T04:26:38.535Z,8.23
2022-12-24T04:29:05.822Z,8.21
2022-12-24T04:31:33.084Z,8.26
2022-12-24T04:34:00.494Z,8.33
2022-12-24T04:36:28.008Z,8.37
2022-12-24T04:38:55.113Z,8.39
2022-12-24T04:41:24.891Z,8.40
2022-12-24T04:43:54.753Z,8.41
2022-12-24T04:46:24.816Z,8.41
2022-12-24T04:48:54.148Z,8.41
2022-12-24T04:51:22.316Z,8.41
2022-12-24T04:53:50.190Z,8.44
2022-12-24T04:56:19.195Z,8.45
2022-12-24T04:58:46.772Z,8.42
2022-12-24T05:01:24.028Z,8.34
2022-12-24T05:03:52.424Z,8.32
2022-12-24T05:06:26.342Z,8.35
2022-12-24T05:08:55.981Z,8.32
2022-12-24T05:11:23.225Z,8.31
2022-12-24T05:13:50.857Z,8.25
2022-12-24T05:16:20.863Z,8.23
2022-12-24T05:18:48.144Z,8.19
2022-12-24T05:21:19.012Z,8.13
2022-12-24T05:24:05.160Z,7.97
2022-12-24T05:26:34.684Z,7.90
2022-12-24T05:29:06.788Z,7.91
2022-12-24T05:31:34.500Z,7.85
2022-12-24T05:34:02.209Z,7.84
2022-12-24T05:36:29.875Z,7.81
2022-12-24T05:38:57.570Z,7.84
2022-12-24T05:41:24.936Z,7.87
2022-12-24T05:43:52.419Z,7.87
2022-12-24T05:46:21.449Z,7.93
2022-12-24T05:48:49.906Z,7.98
2022-12-24T05:51:22.361Z,8.06
2022-12-24T05:53:51.283Z,8.07
2022-12-24T05:56:23.020Z,8.11
2022-12-24T05:58:52.094Z,8.09
2022-12-24T06:01:20.569Z,8.11
2022-12-24T06:03:49.801Z,8.12
2022-12-24T06:06:20.825Z,8.05
2022-12-24T06:08:49.056Z,8.00
2022-12-24T06:11:19.453Z,7.97
2022-12-24T06:13:46.977Z,7.94
2022-12-24T06:16:16.432Z,7.92
2022-12-24T06:18:44.621Z,7.85
2022-12-24T06:21:12.500Z,7.83
2022-12-24T06:23:40.495Z,7.89
2022-12-24T06:26:08.842Z,7.85
2022-12-24T06:28:38.060Z,7.82
2022-12-24T06:31:07.280Z,7.90
2022-12-24T06:33:34.953Z,7.88
2022-12-24T06:36:02.174Z,7.84
2022-12-24T06:38:32.580Z,7.84
2022-12-24T06:40:59.929Z,7.88
2022-12-24T06:43:27.121Z,7.99
2022-12-24T06:45:54.407Z,8.00
2022-12-24T06:48:22.055Z,8.07
2022-12-24T06:50:49.253Z,8.00
2022-12-24T06:53:16.459Z,7.98
2022-12-24T06:55:43.872Z,8.06
2022-12-24T06:58:11.538Z,8.12
2022-12-24T07:00:38.844Z,8.08
2022-12-24T07:03:06.009Z,8.12
2022-12-24T07:05:33.234Z,8.08
2022-12-24T07:08:00.693Z,8.06
2022-12-24T07:10:27.860Z,8.05
2022-12-24T07:12:55.073Z,8.03
2022-12-24T07:15:22.235Z,8.06
2022-12-24T07:17:49.549Z,8.08
2022-12-24T07:20:16.836Z,8.06
2022-12-24T07:22:44.095Z,8.02
2022-12-24T07:25:11.713Z,7.93
2022-12-24T07:27:39.491Z,8.02
2022-12-24T07:30:07.262Z,8.00
2022-12-24T07:32:34.694Z,8.04
2022-12-24T07:35:02.132Z,8.01
2022-12-24T07:37:29.362Z,7.96
2022-12-24T07:39:56.561Z,7.91
2022-12-24T07:42:23.813Z,8.00
2022-12-24T07:44:51.158Z,7.93
2022-12-24T07:47:18.372Z,7.92
2022-12-24T07:49:45.520Z,7.97
2022-12-24T07:52:12.800Z,7.95
2022-12-24T07:54:40.071Z,7.91
2022-12-24T07:57:07.303Z,7.90
2022-12-24T07:59:34.596Z,7.89
2022-12-24T08:02:02.029Z,7.87
2022-12-24T08:04:32.669Z,7.82
2022-12-24T08:07:00.893Z,7.83
2022-12-24T08:09:28.385Z,7.83
2022-12-24T08:11:56.292Z,7.81
2022-12-24T08:14:23.563Z,7.79
2022-12-24T08:16:50.668Z,7.78
2022-12-24T08:19:18.063Z,7.74
2022-12-24T08:21:45.223Z,7.70
2022-12-24T08:24:12.489Z,7.71
2022-12-24T08:26:39.807Z,7.68
2022-12-24T08:29:07.364Z,7.64
2022-12-24T08:31:37.597Z,7.62
2022-12-24T08:34:06.911Z,7.60
2022-12-24T08:36:35.059Z,7.63
2022-12-24T08:39:03.790Z,7.66
2022-12-24T08:41:32.241Z,7.65
2022-12-24T08:43:59.654Z,7.66
2022-12-24T08:46:27.345Z,7.68
2022-12-24T08:48:54.616Z,7.73
2022-12-24T08:51:21.889Z,7.75
2022-12-24T08:53:49.237Z,7.80
2022-12-24T08:56:16.750Z,7.83
2022-12-24T08:58:44.015Z,7.88
2022-12-24T09:01:21.161Z,7.91
2022-12-24T09:03:48.679Z,7.92
2022-12-24T09:06:16.217Z,7.97
2022-12-24T09:08:43.988Z,7.95
2022-12-24T09:11:15.174Z,7.98
2022-12-24T09:13:43.242Z,8.00
2022-12-24T09:16:11.741Z,8.03
2022-12-24T09:18:40.061Z,8.02
2022-12-24T09:21:17.502Z,8.05
2022-12-24T09:23:47.151Z,8.07
2022-12-24T09:26:20.220Z,8.08
2022-12-24T09:28:48.113Z,8.10
2022-12-24T09:31:17.090Z,8.14
2022-12-24T09:33:46.560Z,8.12
2022-12-24T09:36:14.374Z,8.16
2022-12-24T09:38:41.530Z,8.14
2022-12-24T09:41:34.825Z,8.15
2022-12-24T09:44:14.526Z,8.21
2022-12-24T09:46:45.748Z,8.24
2022-12-24T09:49:21.936Z,8.30
2022-12-24T09:52:05.576Z,8.31
2022-12-24T09:54:37.587Z,8.39
2022-12-24T09:57:13.004Z,8.72
2022-12-24T09:59:46.576Z,9.03
2022-12-24T10:02:18.465Z,9.05
2022-12-24T10:04:48.971Z,9.01
2022-12-24T10:12:12.023Z,8.78
2022-12-24T10:14:50.985Z,8.81
2022-12-24T10:17:40.206Z,8.83
2022-12-24T10:20:42.240Z,8.79
2022-12-24T10:23:12.827Z,8.55
2022-12-24T10:26:07.501Z,8.47
2022-12-24T10:28:46.190Z,8.67
2022-12-24T10:31:13.987Z,8.77
2022-12-24T10:33:43.064Z,8.84
2022-12-24T10:36:18.433Z,8.86
2022-12-24T10:38:46.655Z,8.94
2022-12-24T10:41:16.240Z,9.06
2022-12-24T10:43:46.201Z,9.19
2022-12-24T10:46:24.198Z,9.10
2022-12-24T10:49:30.319Z,9.36
2022-12-24T10:52:05.008Z,9.52
2022-12-24T10:54:39.274Z,9.71
2022-12-24T10:57:25.190Z,9.38
2022-12-24T10:59:56.887Z,9.04
2022-12-24T11:02:39.498Z,8.87
2022-12-24T11:05:28.018Z,8.77
2022-12-24T11:08:02.657Z,8.72
2022-12-24T11:10:31.336Z,8.66
2022-12-24T11:13:35.041Z,8.65
2022-12-24T11:15:51.033Z,8.61
2022-12-24T11:18:18.537Z,8.59
2022-12-24T11:20:52.351Z,8.57
2022-12-24T11:23:20.982Z,8.52
2022-12-24T11:25:50.035Z,8.47
2022-12-24T11:28:28.276Z,8.45
2022-12-24T11:31:18.738Z,8.43
2022-12-24T11:33:52.718Z,8.50
2022-12-24T11:36:26.560Z,8.52
2022-12-24T11:38:57.215Z,8.56
2022-12-24T11:41:26.372Z,8.52
2022-12-24T11:44:07.986Z,8.46
2022-12-24T11:46:41.640Z,8.47
2022-12-24T11:49:12.293Z,8.49
2022-12-24T11:51:41.190Z,8.50
2022-12-24T11:54:17.137Z,8.51
2022-12-24T11:56:52.340Z,8.52
2022-12-24T11:59:26.775Z,8.51
2022-12-24T12:02:10.561Z,8.52
2022-12-24T12:04:40.836Z,8.57
2022-12-24T12:07:18.863Z,8.60
2022-12-24T12:09:52.031Z,8.60
2022-12-24T12:12:24.863Z,8.63
2022-12-24T12:14:55.967Z,8.68
2022-12-24T12:17:45.082Z,8.59
2022-12-24T12:20:26.136Z,8.57
2022-12-24T12:22:56.022Z,8.54
2022-12-24T12:25:38.501Z,8.52
2022-12-24T12:28:12.018Z,8.48
2022-12-24T12:30:43.365Z,8.42
2022-12-24T12:33:41.420Z,8.42
2022-12-24T12:36:12.807Z,8.40
2022-12-24T12:38:40.790Z,8.37
2022-12-24T12:41:24.142Z,8.32
2022-12-24T12:44:03.573Z,8.28
2022-12-24T12:47:09.002Z,8.28
2022-12-24T12:49:55.660Z,8.25
2022-12-24T12:52:38.079Z,8.29
2022-12-24T12:55:24.793Z,8.29
2022-12-24T12:57:56.406Z,8.30
2022-12-24T13:00:23.929Z,8.31
2022-12-24T13:02:59.622Z,8.31
2022-12-24T13:05:48.051Z,8.36
2022-12-24T13:08:56.808Z,8.42
2022-12-24T13:11:42.704Z,8.61
2022-12-24T13:14:28.452Z,8.98
2022-12-24T13:17:14.804Z,9.13
2022-12-24T13:19:57.049Z,9.08
2022-12-24T13:22:24.307Z,9.17
2022-12-24T13:24:54.268Z,9.23
2022-12-24T13:27:27.629Z,9.20
2022-12-24T13:29:59.979Z,9.23
2022-12-24T13:32:46.270Z,9.23
2022-12-24T13:35:33.519Z,9.18
2022-12-24T13:38:29.470Z,9.08
2022-12-24T13:41:38.212Z,9.02
2022-12-24T13:44:06.994Z,9.05
2022-12-24T13:46:46.113Z,9.08
2022-12-24T13:49:33.703Z,9.11
2022-12-24T13:52:18.719Z,9.06
2022-12-24T13:54:49.171Z,9.07
2022-12-24T13:57:34.577Z,9.12
2022-12-24T14:00:23.788Z,9.08
2022-12-24T14:02:51.068Z,8.91
2022-12-24T14:05:23.183Z,8.77
2022-12-24T14:07:51.590Z,8.73
2022-12-24T14:10:33.474Z,8.68
2022-12-24T14:13:00.892Z,8.65
2022-12-24T14:15:50.145Z,8.65
2022-12-24T14:18:23.732Z,8.67
2022-12-24T14:20:54.513Z,8.67
2022-12-24T14:23:42.800Z,8.61
2022-12-24T14:26:16.020Z,8.62
2022-12-24T14:28:48.406Z,8.61
2022-12-24T14:31:18.813Z,8.60
2022-12-24T14:33:46.783Z,8.56
2022-12-24T14:36:15.830Z,8.58
2022-12-24T14:38:45.247Z,8.56
2022-12-24T14:41:40.116Z,8.51
2022-12-24T14:44:07.382Z,8.49
2022-12-24T14:47:06.023Z,8.46
2022-12-24T14:49:57.807Z,8.38
2022-12-24T14:53:04.564Z,8.32
2022-12-24T14:55:41.745Z,8.28
2022-12-24T14:58:31.095Z,8.25
2022-12-24T15:01:22.828Z,8.18
2022-12-24T15:04:16.243Z,8.09
2022-12-24T15:06:53.249Z,8.12
2022-12-24T15:09:23.805Z,8.04
2022-12-24T15:11:55.332Z,8.04
2022-12-24T15:14:39.150Z,7.99
2022-12-24T15:17:08.462Z,7.83
2022-12-24T15:19:44.738Z,7.73
2022-12-24T15:22:22.992Z,7.66
2022-12-24T15:24:50.664Z,7.55
2022-12-24T15:27:23.845Z,7.48
2022-12-24T15:29:53.821Z,7.38
2022-12-24T15:32:22.063Z,7.32
2022-12-24T15:34:55.734Z,7.34
2022-12-24T15:37:27.039Z,7.31
2022-12-24T15:39:56.996Z,7.23
2022-12-24T15:42:26.206Z,7.19
2022-12-24T15:45:00.119Z,7.24
2022-12-24T15:47:37.839Z,7.28
2022-12-24T15:50:43.408Z,7.32
2022-12-24T15:53:20.104Z,7.33
2022-12-24T15:56:07.774Z,7.34
2022-12-24T15:58:43.421Z,7.10
2022-12-24T16:01:13.817Z,7.00
2022-12-24T16:04:02.969Z,6.90
2022-12-24T16:06:54.328Z,6.84
2022-12-24T16:09:40.555Z,6.80
2022-12-24T16:12:34.921Z,6.62
2022-12-24T16:15:02.237Z,6.44
2022-12-24T16:17:34.442Z,6.33
2022-12-24T16:20:06.729Z,6.24
2022-12-24T16:22:36.898Z,6.18
2022-12-24T16:25:27.957Z,6.05
2022-12-24T16:28:00.080Z,5.98
2022-12-24T16:30:28.149Z,5.87
2022-12-24T16:32:55.307Z,5.85
2022-12-24T16:35:33.338Z,5.80
2022-12-24T16:38:00.570Z,5.80
2022-12-24T16:40:28.403Z,5.76
2022-12-24T16:43:17.318Z,5.67
2022-12-24T16:45:46.568Z,5.62
2022-12-24T16:48:23.243Z,5.61
2022-12-24T16:50:51.911Z,5.57
2022-12-24T16:53:21.474Z,5.63
2022-12-24T16:55:51.165Z,5.77
2022-12-24T16:58:20.083Z,5.87
2022-12-24T17:00:48.323Z,5.91
2022-12-24T17:03:15.700Z,5.92
2022-12-24T17:05:44.251Z,5.89
2022-12-24T17:08:12.631Z,6.00
2022-12-24T17:10:40.971Z,5.98
2022-12-24T17:13:08.588Z,6.01
2022-12-24T17:15:35.867Z,6.09
2022-12-24T17:18:03.268Z,6.03
2022-12-24T17:20:30.470Z,6.00
2022-12-24T17:22:58.892Z,5.91
2022-12-24T17:25:26.102Z,5.90
2022-12-24T17:27:53.362Z,5.73
2022-12-24T17:30:20.715Z,5.74
2022-12-24T17:32:47.839Z,5.62
2022-12-24T17:35:15.437Z,5.58
2022-12-24T17:37:42.629Z,5.41
2022-12-24T17:40:10.444Z,5.43
2022-12-24T17:42:37.623Z,5.33
2022-12-24T17:45:05.634Z,5.21
2022-12-24T17:47:32.888Z,5.17
2022-12-24T17:50:00.170Z,5.14
2022-12-24T17:52:27.463Z,5.04
2022-12-24T17:54:54.995Z,4.94
2022-12-24T17:57:22.133Z,4.91
2022-12-24T17:59:49.438Z,4.87
2022-12-24T18:02:16.768Z,4.84
2022-12-24T18:04:44.121Z,4.90
2022-12-24T18:07:11.362Z,4.95
2022-12-24T18:09:38.578Z,5.03
2022-12-24T18:12:06.136Z,4.95
2022-12-24T18:14:33.385Z,4.89
2022-12-24T18:17:00.797Z,4.86
2022-12-24T18:19:28.030Z,4.89
2022-12-24T18:21:55.311Z,5.08
2022-12-24T18:24:22.683Z,4.94
2022-12-24T18:26:50.079Z,5.02
2022-12-24T18:29:23.869Z,4.85
2022-12-24T18:31:53.480Z,5.03
2022-12-24T18:34:24.398Z,5.10
2022-12-24T18:36:57.724Z,5.45
2022-12-24T18:39:29.463Z,5.41
2022-12-24T18:41:56.786Z,5.46
2022-12-24T18:44:25.665Z,5.52
2022-12-24T18:46:53.116Z,5.45
2022-12-24T18:49:20.370Z,5.39
2022-12-24T18:51:47.586Z,5.44
2022-12-24T18:54:15.186Z,5.34
2022-12-24T18:56:42.507Z,5.22
2022-12-24T18:59:09.881Z,5.22
2022-12-24T19:01:37.258Z,5.44
2022-12-24T19:04:04.609Z,5.41
2022-12-24T19:06:31.760Z,5.37
2022-12-24T19:09:00.827Z,5.29
2022-12-24T19:11:31.546Z,5.49
2022-12-24T19:13:59.654Z,5.59
2022-12-24T19:16:27.950Z,5.49
2022-12-24T19:18:55.289Z,5.39
2022-12-24T19:21:22.559Z,5.26
2022-12-24T19:23:50.081Z,5.35
2022-12-24T19:26:19.244Z,5.49
2022-12-24T19:28:47.209Z,5.52
2022-12-24T19:31:15.792Z,5.59
2022-12-24T19:33:49.708Z,5.52
2022-12-24T19:36:20.895Z,5.53
2022-12-24T19:38:48.291Z,5.67
2022-12-24T19:41:18.629Z,5.63
2022-12-24T19:43:48.855Z,5.62
2022-12-24T19:46:19.214Z,5.61
2022-12-24T19:48:55.705Z,5.67
2022-12-24T19:51:24.409Z,5.71
2022-12-24T19:53:54.472Z,5.91
2022-12-24T19:56:23.623Z,5.92
2022-12-24T19:58:50.932Z,5.80
2022-12-24T20:01:21.396Z,5.82
2022-12-24T20:03:50.443Z,5.74
2022-12-24T20:06:19.127Z,5.72
2022-12-24T20:08:46.372Z,5.74
2022-12-24T20:11:15.861Z,5.75
2022-12-24T20:13:43.781Z,5.77
2022-12-24T20:16:12.389Z,5.78
2022-12-24T20:18:39.974Z,5.80
2022-12-24T20:21:09.763Z,5.83
2022-12-24T20:23:38.481Z,5.86
2022-12-24T20:26:06.761Z,5.77
2022-12-24T20:28:36.789Z,5.65
2022-12-24T20:31:17.030Z,5.67
2022-12-24T20:33:46.034Z,5.60
2022-12-24T20:36:16.107Z,5.58
2022-12-24T20:38:43.944Z,5.52
2022-12-24T20:41:13.705Z,5.52
2022-12-24T20:43:47.850Z,5.49
2022-12-24T20:46:22.962Z,5.46
2022-12-24T20:48:52.250Z,5.47
2022-12-24T20:51:24.729Z,5.47
2022-12-24T20:53:54.294Z,5.46
2022-12-24T20:56:22.145Z,5.52
2022-12-24T20:58:49.511Z,5.47
2022-12-24T21:01:19.991Z,5.40
2022-12-24T21:03:47.524Z,5.44
2022-12-24T21:06:17.651Z,5.43
2022-12-24T21:08:54.790Z,5.37
2022-12-24T21:11:41.145Z,5.43
2022-12-24T21:14:09.152Z,5.40
2022-12-24T21:16:37.831Z,5.44
2022-12-24T21:19:06.207Z,5.39
2022-12-24T21:21:34.915Z,5.40
2022-12-24T21:24:03.993Z,5.41
2022-12-24T21:26:32.171Z,5.41
2022-12-24T21:29:00.024Z,5.41
2022-12-24T21:31:28.416Z,5.44
2022-12-24T21:33:56.154Z,5.49
2022-12-24T21:36:24.258Z,5.42
2022-12-24T21:38:51.500Z,5.49
2022-12-24T21:41:22.826Z,5.46
2022-12-24T21:43:50.617Z,5.39
2022-12-24T21:46:19.500Z,5.42
2022-12-24T21:49:05.406Z,5.38
2022-12-24T21:51:33.028Z,5.29
2022-12-24T21:54:18.759Z,5.22
2022-12-24T21:57:04.812Z,5.27
2022-12-24T21:59:32.020Z,5.28
2022-12-24T22:01:59.614Z,5.25
2022-12-24T22:04:27.807Z,5.34
2022-12-24T22:07:13.879Z,5.24
2022-12-24T22:09:59.688Z,5.19
2022-12-24T22:12:30.861Z,5.11
2022-12-24T22:14:58.228Z,5.12
2022-12-24T22:17:26.091Z,5.12
2022-12-24T22:19:53.941Z,5.08
2022-12-24T22:22:21.461Z,5.20
2022-12-24T22:24:48.787Z,5.10
2022-12-24T22:27:15.920Z,5.11
2022-12-24T22:29:43.048Z,5.07
2022-12-24T22:32:10.157Z,5.07
2022-12-24T22:34:37.335Z,5.03
2022-12-24T22:37:04.584Z,5.09
2022-12-24T22:39:31.874Z,5.03
2022-12-24T22:41:58.984Z,4.97
2022-12-24T22:44:26.129Z,4.95
2022-12-24T22:46:53.308Z,4.97
2022-12-24T22:49:20.476Z,4.89
2022-12-24T22:51:47.648Z,4.85
2022-12-24T22:54:14.924Z,4.81
2022-12-24T22:56:42.203Z,4.75
2022-12-24T22:59:13.352Z,4.76
2022-12-24T23:01:43.611Z,4.87
2022-12-24T23:04:11.636Z,4.82
2022-12-24T23:06:39.823Z,4.90
2022-12-24T23:09:10.588Z,4.91
2022-12-24T23:11:39.566Z,4.86
2022-12-24T23:14:25.522Z,4.77
2022-12-24T23:16:52.671Z,4.69
2022-12-24T23:19:19.827Z,4.73
2022-12-24T23:21:46.986Z,4.79
2022-12-24T23:24:14.481Z,4.93
2022-12-24T23:26:41.690Z,5.02
2022-12-24T23:29:08.933Z,5.13
2022-12-24T23:31:37.660Z,5.21
2022-12-24T23:34:04.952Z,5.28
2022-12-24T23:36:32.280Z,5.33
2022-12-24T23:38:59.627Z,5.33
2022-12-24T23:41:26.888Z,5.16
2022-12-24T23:43:54.020Z,5.26
2022-12-24T23:46:21.708Z,5.32
2022-12-24T23:48:54.008Z,5.28
2022-12-24T23:51:24.562Z,5.26
2022-12-24T23:53:53.796Z,5.36
2022-12-24T23:56:22.857Z,5.35
2022-12-24T23:58:50.495Z,5.30
